UGSBUGTB

Guest
Details From UGSB - BATUMI
To UGTB - TBILISI
Flight Number -
Tags generated
Created
Modified
Stats Distance 151 nm / 279 km
Max Altitude 19,100 ft / 5,822 m
Waypoints 3
Social Downloads 5
Likes 0
Share VATSIM

Download

Looking for another format? Having issues loading an existing format? Contact us
Advertisement - Login to hide

Notes

Basic altitude profile: - Ascent Rate: 2500ft/min - Ascent Speed: 250kts - Cruise Altitude: 35000ft - Cruise Speed: 420kts - Descent Rate: 1500ft/min - Descent Speed: 250kts Options: - Use NATs: yes - Use PACOTS: yes - Use low airways: yes - Use high airways: yes

Route

UGSB TETRO UGTB

ID Type Via Altitude Latitude Longitude Leg Dist Tot Dist Heading (true) Name
O UGSB APT - 0 ft / 0 m 41.60966˚ 41.60032˚ - 0 nm - BATUMI
TETRO FIX - 19,100 ft / 5,822 m 41.67250˚ 42.85972˚ 56 nm 56 nm 86° / 87° -
O UGTB APT - 0 ft / 0 m 41.66858˚ 44.95364˚ 93 nm 150 nm 89° / 91° TBILISI

Altitude Profile

Advertisement - Login to hide

UGSB

Details ICAO UGSB (BUS)
Name BATUMI
Region Georgia
Timezone Asia/Tbilisi (UTC+4.0)
Stats Elevation 105 ft / 32 m (AMSL)
Location 41.609660° 41.600318°
Runways 1
Magnetic Variation 6.546° E

METAR

UGSB 122130Z AUTO 13018KT CAVOK 11/00 Q1024 R13/70D NOSIG

Decode

TAF

Not found

Departure Runways

ID Width Length Bearing (true) Bearing (mag) Surface Threshold Offset Overrun Length
13 150 ft / 46 m 7,321 ft / 2,232 m 130.81° 124.26° Asphalt 0 ft / 0 m 690 ft / 210 m
31 150 ft / 46 m 7,321 ft / 2,232 m 310.82° 304.27° Asphalt 0 ft / 0 m 0 ft / 0 m

UGTB

Details ICAO UGTB (TBS)
Name TBILISI
Region Georgia
Timezone Asia/Tbilisi (UTC+4.0)
Stats Elevation 1,624 ft / 495 m (AMSL)
Location 41.668582° 44.953644°
Runways 2
Magnetic Variation 6.647° E

METAR

UGTB 122130Z 03003KT 010V070 CAVOK 02/M01 Q1030 R13R/CLRD70 NOSIG

Decode

TAF

Not found

Destination Runways

ID Width Length Bearing (true) Bearing (mag) Surface Threshold Offset Overrun Length
13L 196 ft / 60 m 8,208 ft / 2,502 m 133.64° 126.99° Asphalt 0 ft / 0 m 0 ft / 0 m
13R 147 ft / 45 m 9,839 ft / 2,999 m 136.65° 130.00° Concrete 0 ft / 0 m 155 ft / 47 m
31L 147 ft / 45 m 9,839 ft / 2,999 m 316.67° 310.02° Concrete 0 ft / 0 m 150 ft / 46 m
31R 196 ft / 60 m 8,208 ft / 2,502 m 313.65° 307.00° Asphalt 0 ft / 0 m 0 ft / 0 m

Approach Navaids

Runway Type Ident Frequency Range Bearing (true) Bearing (mag) Slope Elevation
13R Localiser IVP 110.30 MHz 18 nm / 33 km 136.69° 130.04° - 1,624 ft / 495 m (AMSL)
13R Glidescope IVP 110.30 MHz 10 nm / 19 km 136.66° 130.02° 3.00° 1,657 ft / 505 m (AMSL)
31L Localiser INA 108.90 MHz 18 nm / 33 km 316.65° 310.00° - 1,624 ft / 495 m (AMSL)
31L Glidescope INA 108.90 MHz 10 nm / 19 km 316.66° 310.02° 3.00° 1,624 ft / 495 m (AMSL)

Popular Alternatives